フアン・サンタ・マリア国際空港の過去48時間の天気

フアン・サンタ・マリア国際空港 (Juan Santamaria)

現在時刻: 9/17 05:19 CST (9/17 11:19 UTC) 以下の時間は現地時間です。

過去48時間のMETAR気象情報
時間 風向 風速(m/s) 視程 気温(℃) 湿度(%) 気圧(hPa) 天気現象
17 05:00 不定 1 3000m 20 100 1017 もや
17 04:00 静穏 0 2500m 20 100 1017 もや
17 03:00 西南西 1 1000m 20 100 1017 もや
17 02:00 西南西 2 700m 20 100 1017
17 01:00 南西 2 1000m 20 100 1017
17 00:00 南西 2 1500m 21 94 1017 もや
16 23:00 南西 2 1500m 21 94 1018 もや
16 22:00 南西 2 500m 21 100 1018
16 21:16 西南西 2 2000m 21 100 1018 もや
16 21:00 西南西 3 6000m 21 100 1018 散在した霧
16 20:00 西南西 2 8000m 21 100 1017 散在した霧
16 19:00 南西 2 8000m 21 100 1017
16 18:00 西南西 2 10km以上 22 94 1016
16 17:00 西 3 10km以上 22 94 1015
16 16:00 西南西 4 10km以上 23 89 1015
16 15:00 西南西 3 10km以上 24 78 1015
16 14:00 南西 2 10km以上 25 74 1015
16 13:00 南西 2 10km以上 24 74 1016
16 12:00 西 3 10km以上 24 78 1017
16 11:00 西南西 4 10km以上 23 78 1018
16 10:00 西南西 4 10km以上 22 83 1018
16 09:00 3 10km以上 23 73 1018
16 08:00 東北東 4 10km以上 22 73 1018
16 07:00 東北東 3 10km以上 21 83 1018
16 06:00 東北東 4 10km以上 20 83 1017
16 05:00 不定 1 10km以上 19 100 1016 散在した霧
16 04:20 2 10km以上 19 100 1016 散在した霧
16 04:00 3 3000m 19 100 1016 もや
16 03:00 東北東 3 10km以上 20 88 1015
16 02:00 2 10km以上 20 94 1016
16 01:00 北東 4 10km以上 20 94 1016
16 00:00 2 10km以上 19 100 1017 散在した霧
15 23:00 2 10km以上 20 94 1017
15 22:00 2 10km以上 20 100 1018
15 21:00 西南西 2 10km以上 21 94 1018
15 20:00 西北西 2 10km以上 21 94 1017
15 19:00 北西 3 10km以上 21 94 1016
15 18:00 西南西 2 10km以上 20 100 1016 弱い雨
15 17:00 不定 2 10km以上 21 88 1015 弱い雨
15 16:00 東南東 3 8000m 21 94 1015 弱い雨
15 15:00 2 5000m 22 94 1014 弱い雨 もや 周辺で雷
15 14:00 西 4 9000m 23 89 1015 弱い雷雨
15 13:38 西南西 4 10km以上 23 83 1014 弱い雨 周辺で雷
MROC 171100Z VRB02KT 3000 BR FEW003 SCT020 BKN100 20/20 A3003 NOSIG
MROC 171000Z 00000KT 2500 BR FEW002 SCT015 OVC100 20/20 A3002 NOSIG
MROC 170900Z 24002KT 1000 BR SCT002 BKN010 20/20 A3002 NOSIG
MROC 170800Z 24003KT 0700 FG VV002 20/20 A3002 NOSIG
MROC 170700Z 22003KT 190V260 1000 FG VV002 20/20 A3003 NOSIG
MROC 170600Z 23004KT 1500 BR SCT002 BKN010 21/20 A3004 NOSIG
MROC 170500Z 22004KT 1500 BR SCT002 BKN010 21/20 A3006 NOSIG
MROC 170400Z 23003KT 200V260 0500 FG BKN002 OVC010 21/21 A3006 NOSIG
MROC 170316Z 25004KT 2000 BR SCT002 BKN010 21/21 A3005 NOSIG
MROC 170300Z 25006KT 6000 2500SW BCFG FEW001 SCT005 OVC015 21/21 A3005 NOSIG
MROC 170200Z 24004KT 8000 2500SW BCFG FEW002 SCT005 BKN015 21/21 A3003 NOSIG
MROC 170100Z 23003KT 8000 FEW002 SCT005 BKN050 21/21 A3002 NOSIG
MROC 170000Z 24004KT 9999 SCT005 OVC200 22/21 A2999 NOSIG
MROC 162300Z 26005KT 9999 FEW005 SCT010 BKN140 22/21 A2998 NOSIG
MROC 162200Z 25007KT 9999 FEW020 BKN120 23/21 A2998 NOSIG
MROC 162100Z 24006KT 9999 SCT030 BKN110 24/20 A2998 NOSIG
MROC 162000Z 22003KT 130V290 9999 FEW025 BKN120 25/20 A2998 NOSIG
MROC 161900Z 23003KT 200V270 9999 FEW020 BKN120 24/19 A3000 NOSIG
MROC 161800Z 27006KT 210V330 9999 FEW015 BKN130 24/20 A3002 NOSIG
MROC 161700Z 25008KT 9999 FEW045 BKN100 23/19 A3006 NOSIG
MROC 161600Z 25007KT CAVOK 22/19 A3007 NOSIG
MROC 161500Z 08005KT CAVOK 23/18 A3007 NOSIG
MROC 161400Z 07007KT CAVOK 22/17 A3007 NOSIG
MROC 161300Z 07006KT CAVOK 21/18 A3005 NOSIG
MROC 161200Z 07008KT CAVOK 20/17 A3002 NOSIG
MROC 161100Z VRB02KT 9999 BCFG FEW004 19/19 A3001 NOSIG
MROC 161020Z 19003KT 9999 BCFG FEW001 SCT004 19/19 A3001 NOSIG
MROC 161000Z 19005KT 3000 BR SCT004 19/19 A3000 NOSIG
MROC 160900Z 06005KT 090V090 CAVOK 20/18 A2998 NOSIG
MROC 160800Z 09003KT 060V120 CAVOK 20/19 A3000 NOSIG
MROC 160700Z 05008KT CAVOK 20/19 A3001 NOSIG
MROC 160600Z 09004KT 9999 2000SW BCFG FEW005 BKN140 19/19 A3003 NOSIG
MROC 160500Z 35003KT CAVOK 20/19 A3003 NOSIG
MROC 160400Z 10003KT 9999 FEW010 20/20 A3005 NOSIG
MROC 160300Z 25003KT 140V310 9999 SCT020 OVC100 21/20 A3005 NOSIG
MROC 160200Z 29003KT 240V320 9999 SCT025 OVC100 21/20 A3003 NOSIG
MROC 160100Z 32005KT 290V350 9999 SCT025 OVC100 21/20 A3001 NOSIG
MROC 160000Z 24003KT 9999 -RA FEW005 OVC100 20/20 A3000 NOSIG
MROC 152300Z VRB03KT 9999 -RA FEW004 OVC100 21/19 A2998 NOSIG
MROC 152200Z 11006KT 070V150 8000 -RA FEW030 OVC100 21/20 A2996 NOSIG
MROC 152100Z 10004KT 5000 -RA BR VCTS FEW002 SCT015 OVC100 22/21 A2995 NOSIG
MROC 152000Z 28007KT 250V310 9000 3000N -TSRA FEW012CB SCT025 BKN060 23/21 A2996 TEMPO 5000
MROC 151938Z 24007KT 210V270 9999 -RA VCTS FEW012CB FEW025 BKN060 23/20 A2995 TEMPO 5000 -TSRA